Weather at Dane County Regional Truax Field

Public forecast

Using degrees Fahrenheit for public forecast. Weather courtesy of forecast.io.

Current aviation weather report (METAR) for Dane County Regional Truax Field

2024/05/22 04:03 (retrieved 22 minutes ago)

KMSN 220403Z AUTO 20009KT 10SM FEW021 SCT055 BKN075 20/18 A2947 RMK AO2 LTG DSNT NE-SE T02000178

Closest aviation forecast (TAF) to Dane County Regional Truax Field

Forecast is more than 6 hours old.

Closest forecast is Grissom Air Reserve Base, 206.5 nm (382.4 km) SE.

2024/05/21 21:24 (retrieved 7 hours ago)

TAF KGUS 212100Z 2121/2303 20012G20KT 9999 FEW050 SCT250 QNH2972INS TEMPO 2122/2205 20015G25KT 510005 BECMG 2204/2205 18020G30KT 9999 SCT030 OVC050 510007 QNH2971INS BECMG 2207/2208 19020G30KT 9000 -SHRA FEW015 BKN020 OVC040 510007 QNH2970INS BECMG 2211/2212 23012G18KT 9999 VCSH BKN030 QNH2972INS BECMG 2215/2216 24015G25KT 9999 NSW SCT030 BKN060 510005 QNH2981INS BECMG 2223/2224 27006KT 9999 FEW024 FEW040 SCT100 QNH2986INS TX32/2121Z TN20/2211Z LAST NO AMDS AFT 2203 NEXT 2213